createdAt,value
2022-08-17T00:00:51.662Z,0.00
2022-08-17T00:01:52.086Z,0.00
2022-08-17T00:02:43.229Z,0.00
2022-08-17T00:03:42.103Z,0.00
2022-08-17T00:04:42.856Z,0.00
2022-08-17T00:05:42.070Z,0.00
2022-08-17T00:06:42.062Z,0.00
2022-08-17T00:07:42.096Z,0.00
2022-08-17T00:08:42.041Z,0.00
2022-08-17T00:09:42.054Z,0.00
2022-08-17T00:10:42.026Z,0.00
2022-08-17T00:11:42.019Z,0.00
2022-08-17T00:12:44.519Z,0.00
2022-08-17T00:13:43.007Z,0.00
2022-08-17T00:14:41.992Z,0.00
2022-08-17T00:15:42.013Z,0.00
2022-08-17T00:16:56.074Z,0.00
2022-08-17T00:17:42.967Z,0.00
2022-08-17T00:19:05.801Z,0.00
2022-08-17T00:19:42.955Z,0.00
2022-08-17T00:20:41.973Z,0.00
2022-08-17T00:22:28.738Z,0.00
2022-08-17T00:22:42.939Z,0.00
2022-08-17T00:23:47.899Z,0.00
2022-08-17T00:24:42.917Z,0.00
2022-08-17T00:25:41.934Z,0.00
2022-08-17T00:26:44.951Z,0.00
2022-08-17T00:27:41.891Z,0.00
2022-08-17T00:28:41.883Z,0.00
2022-08-17T00:29:41.874Z,0.00
2022-08-17T00:30:50.871Z,0.00
2022-08-17T00:31:42.877Z,0.00
2022-08-17T00:33:15.011Z,0.00
2022-08-17T00:33:42.838Z,0.00
2022-08-17T00:34:41.831Z,0.00
2022-08-17T00:35:41.857Z,0.00
2022-08-17T00:36:41.817Z,0.00
2022-08-17T00:37:41.807Z,0.00
2022-08-17T00:38:41.802Z,0.00
2022-08-17T00:39:41.881Z,0.00
2022-08-17T00:40:44.938Z,0.00
2022-08-17T00:41:42.510Z,0.00
2022-08-17T00:42:41.772Z,0.00
2022-08-17T00:43:41.757Z,0.00
2022-08-17T00:44:41.755Z,0.00
2022-08-17T00:45:41.773Z,0.00
2022-08-17T00:46:41.735Z,0.00
2022-08-17T00:47:41.734Z,0.00
2022-08-17T00:48:41.722Z,0.00
2022-08-17T00:49:41.712Z,0.00
2022-08-17T00:50:41.731Z,0.00
2022-08-17T00:51:41.699Z,0.00
2022-08-17T00:52:41.760Z,0.00
2022-08-17T00:53:41.685Z,0.00
2022-08-17T00:54:42.302Z,0.00
2022-08-17T00:55:41.696Z,0.00
2022-08-17T00:56:41.659Z,0.00
2022-08-17T00:57:41.659Z,0.00
2022-08-17T00:58:41.649Z,0.00
2022-08-17T00:59:41.633Z,0.00
2022-08-17T01:00:41.855Z,0.00
2022-08-17T01:01:41.660Z,0.00
2022-08-17T01:02:42.974Z,0.00
2022-08-17T01:03:41.603Z,0.00
2022-08-17T01:04:41.592Z,0.00
2022-08-17T01:05:42.363Z,0.00
2022-08-17T01:06:41.582Z,0.00
2022-08-17T01:07:41.576Z,0.00
2022-08-17T01:08:41.555Z,0.00
2022-08-17T01:09:42.558Z,0.00
2022-08-17T01:11:00.334Z,0.00
2022-08-17T01:11:42.544Z,0.00
2022-08-17T01:12:41.545Z,0.00
2022-08-17T01:13:41.882Z,0.00
2022-08-17T01:14:41.524Z,0.00
2022-08-17T01:15:41.535Z,0.00
2022-08-17T01:16:41.511Z,0.00
2022-08-17T01:17:41.494Z,0.00
2022-08-17T01:18:41.490Z,0.00
2022-08-17T01:19:41.483Z,0.00
2022-08-17T01:20:48.203Z,0.00
2022-08-17T01:21:42.461Z,0.00
2022-08-17T01:22:41.456Z,0.00
2022-08-17T01:23:41.451Z,0.00
2022-08-17T01:24:41.440Z,0.00
2022-08-17T01:25:41.470Z,0.00
2022-08-17T01:26:41.426Z,0.00
2022-08-17T01:27:41.417Z,0.00
2022-08-17T01:28:55.084Z,0.00
2022-08-17T01:29:42.407Z,0.00
2022-08-17T01:30:58.402Z,0.00
2022-08-17T01:31:42.387Z,0.00
2022-08-17T01:32:41.380Z,0.00
2022-08-17T01:33:41.375Z,0.00
2022-08-17T01:34:43.762Z,0.00
2022-08-17T01:35:42.391Z,0.00
2022-08-17T01:36:41.346Z,0.00
2022-08-17T01:37:41.342Z,0.00
2022-08-17T01:38:41.345Z,0.00
2022-08-17T01:39:41.402Z,0.00
2022-08-17T01:40:41.340Z,0.00
2022-08-17T01:41:41.316Z,0.00
2022-08-17T01:42:41.303Z,0.00
2022-08-17T01:43:41.290Z,0.00
2022-08-17T01:44:41.286Z,0.00
2022-08-17T01:45:41.298Z,0.00
2022-08-17T01:46:41.270Z,0.00
2022-08-17T01:47:41.261Z,0.00
2022-08-17T01:48:41.255Z,0.00
2022-08-17T01:49:41.238Z,0.00
2022-08-17T01:50:41.258Z,0.00
2022-08-17T01:51:41.229Z,0.00
2022-08-17T01:52:41.229Z,0.00
2022-08-17T01:53:41.220Z,0.00
2022-08-17T01:54:41.206Z,0.00
2022-08-17T01:55:41.227Z,0.00
2022-08-17T01:56:41.193Z,0.00
2022-08-17T01:57:41.184Z,0.00
2022-08-17T01:58:41.183Z,0.00
2022-08-17T01:59:41.171Z,0.00
2022-08-17T02:00:46.734Z,0.00
2022-08-17T02:01:42.169Z,0.00
2022-08-17T02:02:41.148Z,0.00
2022-08-17T02:03:41.143Z,0.00
2022-08-17T02:04:42.138Z,0.00
2022-08-17T02:05:41.162Z,0.00
2022-08-17T02:06:52.721Z,0.00
2022-08-17T02:07:59.879Z,0.00
2022-08-17T02:09:01.712Z,0.00
2022-08-17T02:09:42.220Z,0.00
2022-08-17T02:10:46.815Z,0.00
2022-08-17T02:11:42.104Z,0.00
2022-08-17T02:12:41.074Z,0.00
2022-08-17T02:13:41.064Z,0.00
2022-08-17T02:14:41.059Z,0.00
2022-08-17T02:15:41.046Z,0.00
2022-08-17T02:16:41.064Z,0.00
2022-08-17T02:17:41.043Z,0.00
2022-08-17T02:18:41.035Z,0.00
2022-08-17T02:19:41.022Z,0.00
2022-08-17T02:20:42.490Z,0.00
2022-08-17T02:21:41.027Z,0.00
2022-08-17T02:22:40.994Z,0.00
2022-08-17T02:23:40.985Z,0.00
2022-08-17T02:25:00.454Z,0.00
2022-08-17T02:25:41.973Z,0.00
2022-08-17T02:26:40.985Z,0.00
2022-08-17T02:27:40.952Z,0.00
2022-08-17T02:28:40.951Z,0.00
2022-08-17T02:29:40.937Z,0.00
2022-08-17T02:31:02.154Z,0.00
2022-08-17T02:31:41.947Z,0.00
2022-08-17T02:32:40.919Z,0.00
2022-08-17T02:33:42.528Z,0.00
2022-08-17T02:34:40.910Z,0.00
2022-08-17T02:35:40.894Z,0.00
2022-08-17T02:36:40.908Z,0.00
2022-08-17T02:37:40.865Z,0.00
2022-08-17T02:38:41.869Z,0.00
2022-08-17T02:39:40.899Z,0.00
2022-08-17T02:40:40.855Z,0.00
2022-08-17T02:41:40.873Z,0.00
2022-08-17T02:42:40.835Z,0.00
2022-08-17T02:43:40.825Z,0.00
2022-08-17T02:44:40.806Z,0.00
2022-08-17T02:45:41.817Z,0.00
2022-08-17T02:46:40.832Z,0.00
2022-08-17T02:47:40.798Z,0.00
2022-08-17T02:48:40.794Z,0.00
2022-08-17T02:49:45.119Z,0.00
2022-08-17T02:50:41.776Z,0.00
2022-08-17T02:51:40.794Z,0.00
2022-08-17T02:53:02.094Z,0.00
2022-08-17T02:53:41.753Z,0.00
2022-08-17T02:54:42.397Z,0.00
2022-08-17T02:55:41.738Z,0.00
2022-08-17T02:56:40.756Z,0.00
2022-08-17T02:57:40.713Z,0.00
2022-08-17T02:58:40.714Z,0.00
2022-08-17T02:59:43.288Z,0.00
2022-08-17T03:00:41.714Z,0.00
2022-08-17T03:01:40.751Z,0.00
2022-08-17T03:02:40.685Z,0.00
2022-08-17T03:03:40.671Z,0.00
2022-08-17T03:04:40.669Z,0.00
2022-08-17T03:05:40.660Z,0.00
2022-08-17T03:06:40.677Z,0.00
2022-08-17T03:07:40.643Z,0.00
2022-08-17T03:08:40.648Z,0.00
2022-08-17T03:09:40.628Z,0.00
2022-08-17T03:10:40.621Z,0.00
2022-08-17T03:11:40.638Z,0.00
2022-08-17T03:12:40.607Z,0.00
2022-08-17T03:13:40.598Z,0.00
2022-08-17T03:14:41.668Z,0.00
2022-08-17T03:15:41.588Z,0.00
2022-08-17T03:16:40.609Z,0.00
2022-08-17T03:17:40.569Z,0.00
2022-08-17T03:18:40.556Z,0.00
2022-08-17T03:19:42.885Z,0.00
2022-08-17T03:20:40.547Z,0.00
2022-08-17T03:21:40.564Z,0.00
2022-08-17T03:22:40.570Z,0.00
2022-08-17T03:23:40.533Z,0.00
2022-08-17T03:24:40.517Z,0.00
2022-08-17T03:25:40.520Z,4.00
2022-08-17T03:26:40.528Z,0.00
2022-08-17T03:27:42.048Z,0.00
2022-08-17T03:28:40.486Z,4.00
2022-08-17T03:29:40.485Z,4.00
2022-08-17T03:30:40.483Z,4.00
2022-08-17T03:31:40.491Z,4.00
2022-08-17T03:32:40.460Z,4.00
2022-08-17T03:33:40.458Z,4.00
2022-08-17T03:34:40.444Z,4.00
2022-08-17T03:35:40.532Z,4.00
2022-08-17T03:36:40.462Z,8.00
2022-08-17T03:37:40.422Z,8.00
2022-08-17T03:38:40.420Z,8.00
2022-08-17T03:39:40.434Z,12.00
2022-08-17T03:40:56.236Z,12.00
2022-08-17T03:41:41.421Z,16.00
2022-08-17T03:42:40.385Z,20.00
2022-08-17T03:43:40.377Z,24.00
2022-08-17T03:44:40.371Z,24.00
2022-08-17T03:45:40.363Z,28.00
2022-08-17T03:46:40.385Z,32.00
2022-08-17T03:47:40.346Z,36.00
2022-08-17T03:48:40.332Z,44.00
2022-08-17T03:49:40.326Z,52.00
2022-08-17T03:50:40.320Z,60.00
2022-08-17T03:51:40.345Z,68.00
2022-08-17T03:52:40.302Z,80.00
2022-08-17T03:53:40.299Z,96.00
2022-08-17T03:54:40.292Z,108.00
2022-08-17T03:55:40.285Z,124.00
2022-08-17T03:56:40.279Z,144.00
2022-08-17T03:57:40.291Z,168.00
2022-08-17T03:58:40.261Z,184.00
2022-08-17T03:59:40.247Z,208.00
2022-08-17T04:00:40.237Z,232.00
2022-08-17T04:01:40.314Z,260.00
2022-08-17T04:02:40.258Z,284.00
2022-08-17T04:03:40.222Z,316.00
2022-08-17T04:04:40.213Z,340.00
2022-08-17T04:05:40.210Z,368.00
2022-08-17T04:06:40.201Z,400.00
2022-08-17T04:07:40.215Z,428.00
2022-08-17T04:08:40.188Z,456.00
2022-08-17T04:09:40.176Z,484.00
2022-08-17T04:10:44.921Z,524.00
2022-08-17T04:11:42.155Z,560.00
2022-08-17T04:12:40.174Z,588.00
2022-08-17T04:13:40.146Z,624.00
2022-08-17T04:14:52.732Z,672.00
2022-08-17T04:15:42.124Z,732.00
2022-08-17T04:16:40.123Z,796.00
2022-08-17T04:17:40.140Z,868.00
2022-08-17T04:18:40.103Z,936.00
2022-08-17T04:19:40.105Z,1004.00
2022-08-17T04:20:40.090Z,1072.00
2022-08-17T04:21:40.082Z,1156.00
2022-08-17T04:22:40.101Z,1244.00
2022-08-17T04:23:40.060Z,1328.00
2022-08-17T04:24:40.050Z,1396.00
2022-08-17T04:25:40.050Z,1468.00
2022-08-17T04:26:52.771Z,1564.00
2022-08-17T04:27:41.065Z,1676.00
2022-08-17T04:28:40.023Z,1788.00
2022-08-17T04:29:54.547Z,1872.00
2022-08-17T04:30:41.024Z,1928.00
2022-08-17T04:31:40.006Z,2024.00
2022-08-17T04:33:02.212Z,2132.00
2022-08-17T04:33:40.988Z,2216.00
2022-08-17T04:34:39.977Z,2456.00
2022-08-17T04:35:39.974Z,2796.00
2022-08-17T04:36:39.965Z,3164.00
2022-08-17T04:37:40.988Z,3744.00
2022-08-17T04:38:39.945Z,4768.00
2022-08-17T04:39:39.995Z,5784.00
2022-08-17T04:40:39.934Z,6364.00
2022-08-17T04:41:39.923Z,5608.00
2022-08-17T04:42:39.947Z,4852.00
2022-08-17T04:43:39.913Z,4552.00
2022-08-17T04:44:39.905Z,4300.00
2022-08-17T04:45:39.892Z,4580.00
2022-08-17T04:46:39.884Z,4996.00
2022-08-17T04:47:39.901Z,5336.00
2022-08-17T04:48:39.869Z,6040.00
2022-08-17T04:49:39.860Z,6624.00
2022-08-17T04:50:39.854Z,6300.00
2022-08-17T04:51:39.844Z,6284.00
2022-08-17T04:52:43.249Z,5732.00
2022-08-17T04:53:40.837Z,6076.00
2022-08-17T04:54:39.822Z,6412.00
2022-08-17T04:55:39.814Z,7656.00
2022-08-17T04:56:39.809Z,8384.00
2022-08-17T04:57:44.529Z,14944.00
2022-08-17T04:58:41.787Z,18816.00
2022-08-17T04:59:39.785Z,19904.00
2022-08-17T05:00:39.775Z,20992.00
2022-08-17T05:01:39.857Z,25056.00
2022-08-17T05:02:39.792Z,26944.00
2022-08-17T05:03:40.752Z,28288.00
2022-08-17T05:04:39.745Z,28320.00
2022-08-17T05:05:39.739Z,27200.00
2022-08-17T05:06:39.728Z,27904.00
2022-08-17T05:07:39.752Z,22080.00
2022-08-17T05:08:39.715Z,21792.00
2022-08-17T05:09:39.704Z,29696.00
2022-08-17T05:10:45.087Z,31616.00
2022-08-17T05:11:40.692Z,36064.00
2022-08-17T05:12:39.712Z,32960.00
2022-08-17T05:13:39.685Z,38688.00
2022-08-17T05:14:39.671Z,38400.00
2022-08-17T05:15:39.663Z,38848.00
2022-08-17T05:16:40.653Z,38400.00
2022-08-17T05:17:39.671Z,34624.00
2022-08-17T05:18:39.660Z,34592.00
2022-08-17T05:19:39.631Z,29856.00
2022-08-17T05:20:39.622Z,28128.00
2022-08-17T05:21:39.612Z,33248.00
2022-08-17T05:22:39.640Z,42592.00
2022-08-17T05:23:42.429Z,42304.00
2022-08-17T05:24:43.694Z,44864.00
2022-08-17T05:25:40.590Z,48224.00
2022-08-17T05:26:39.584Z,48064.00
2022-08-17T05:27:39.604Z,48448.00
2022-08-17T05:28:39.567Z,47776.00
2022-08-17T05:29:39.562Z,51424.00
2022-08-17T05:30:39.545Z,51424.00
2022-08-17T05:31:40.545Z,53920.00
2022-08-17T05:32:40.458Z,52096.00
2022-08-17T05:33:44.448Z,55360.00
2022-08-17T05:34:41.523Z,52864.00
2022-08-17T05:35:39.513Z,49984.00
2022-08-17T05:36:43.093Z,47776.00
2022-08-17T05:37:39.501Z,50304.00
2022-08-17T05:38:39.520Z,44608.00
2022-08-17T05:39:39.520Z,44640.00
2022-08-17T05:40:39.479Z,62880.00
2022-08-17T05:41:39.467Z,60960.00
2022-08-17T05:42:39.468Z,53184.00
2022-08-17T05:43:39.486Z,55104.00
2022-08-17T05:44:39.462Z,55456.00
2022-08-17T05:45:54.337Z,63616.00
2022-08-17T05:46:40.438Z,66112.00
2022-08-17T05:47:39.436Z,69952.00
2022-08-17T05:48:40.444Z,70592.00
2022-08-17T05:49:39.424Z,72768.00
2022-08-17T05:50:39.413Z,71584.00
2022-08-17T05:51:39.403Z,65120.00
2022-08-17T05:52:39.392Z,63680.00
2022-08-17T05:53:39.415Z,64960.00
2022-08-17T05:54:39.385Z,66944.00
2022-08-17T05:55:39.376Z,70176.00
2022-08-17T05:56:39.372Z,70816.00
2022-08-17T05:57:42.448Z,69824.00
2022-08-17T05:58:40.383Z,67008.00
2022-08-17T05:59:39.351Z,66848.00
2022-08-17T06:00:42.056Z,68576.00
2022-08-17T06:01:39.360Z,61312.00
2022-08-17T06:02:42.012Z,60800.00
2022-08-17T06:03:40.345Z,70624.00
2022-08-17T06:04:39.318Z,68608.00
2022-08-17T06:05:39.305Z,68736.00
2022-08-17T06:06:39.303Z,62560.00
2022-08-17T06:07:39.297Z,62400.00
2022-08-17T06:08:39.313Z,64896.00
2022-08-17T06:09:39.286Z,62464.00
2022-08-17T06:10:39.277Z,58688.00
2022-08-17T06:11:39.269Z,58240.00
2022-08-17T06:12:39.256Z,60064.00
2022-08-17T06:13:39.283Z,61248.00
2022-08-17T06:14:39.255Z,58464.00
2022-08-17T06:15:39.242Z,62144.00
2022-08-17T06:16:39.239Z,64352.00
2022-08-17T06:17:39.227Z,65888.00
2022-08-17T06:18:39.254Z,63616.00
2022-08-17T06:19:39.217Z,59904.00
2022-08-17T06:20:39.214Z,62144.00
2022-08-17T06:21:39.193Z,60320.00
2022-08-17T06:22:40.200Z,63040.00
2022-08-17T06:23:39.211Z,60832.00
2022-08-17T06:24:39.188Z,59520.00
2022-08-17T06:25:39.211Z,63264.00
2022-08-17T06:26:42.951Z,61344.00
2022-08-17T06:27:40.166Z,69888.00
2022-08-17T06:28:39.188Z,66688.00
2022-08-17T06:29:39.159Z,64576.00
2022-08-17T06:30:59.711Z,64608.00
2022-08-17T06:31:40.148Z,61856.00
2022-08-17T06:32:39.138Z,61088.00
2022-08-17T06:33:39.158Z,64576.00
2022-08-17T06:34:39.128Z,61248.00
2022-08-17T06:35:39.149Z,68928.00
2022-08-17T06:36:39.112Z,71744.00
2022-08-17T06:37:39.113Z,72704.00
2022-08-17T06:38:39.134Z,72032.00
2022-08-17T06:39:39.136Z,71680.00
2022-08-17T06:40:39.089Z,70880.00
2022-08-17T06:41:39.083Z,70272.00
2022-08-17T06:43:05.026Z,71200.00
2022-08-17T06:43:40.267Z,73696.00
2022-08-17T06:44:50.226Z,73664.00
2022-08-17T06:45:40.078Z,73536.00
2022-08-17T06:46:39.058Z,73024.00
2022-08-17T06:47:39.046Z,73664.00
2022-08-17T06:48:39.043Z,75168.00
2022-08-17T06:49:39.061Z,77984.00
2022-08-17T06:50:39.031Z,78336.00
2022-08-17T06:51:39.026Z,79008.00
2022-08-17T06:52:45.826Z,79200.00
2022-08-17T06:53:40.008Z,80640.00
2022-08-17T06:54:39.042Z,56000.00
2022-08-17T06:55:38.997Z,81280.00
2022-08-17T06:56:53.835Z,82848.00
2022-08-17T06:57:39.987Z,83712.00
2022-08-17T06:58:40.257Z,84288.00
2022-08-17T06:59:54.611Z,86432.00
2022-08-17T07:00:40.054Z,89600.00
2022-08-17T07:01:39.037Z,91040.00
2022-08-17T07:02:52.000Z,93152.00
2022-08-17T07:03:39.956Z,95904.00
2022-08-17T07:04:38.970Z,54112.00
2022-08-17T07:05:38.965Z,47776.00
2022-08-17T07:06:38.938Z,46496.00
2022-08-17T07:07:38.934Z,55200.00
2022-08-17T07:08:38.952Z,95616.00
2022-08-17T07:09:38.926Z,76736.00
2022-08-17T07:10:38.915Z,86624.00
2022-08-17T07:11:38.911Z,79360.00
2022-08-17T07:12:38.905Z,90208.00
2022-08-17T07:13:38.928Z,68896.00
2022-08-17T07:14:38.898Z,95488.00
2022-08-17T07:15:38.892Z,99968.00
2022-08-17T07:16:38.885Z,101120.00
2022-08-17T07:17:56.849Z,104736.00
2022-08-17T07:18:39.901Z,90464.00
2022-08-17T07:19:38.873Z,99616.00
2022-08-17T07:20:38.862Z,99456.00
2022-08-17T07:21:38.861Z,104096.00
2022-08-17T07:22:57.217Z,104480.00
2022-08-17T07:23:39.872Z,103936.00
2022-08-17T07:24:38.843Z,104384.00
2022-08-17T07:25:38.834Z,104384.00
2022-08-17T07:26:38.842Z,105440.00
2022-08-17T07:27:38.827Z,105632.00
2022-08-17T07:28:38.848Z,105376.00
2022-08-17T07:29:38.819Z,103136.00
2022-08-17T07:30:46.892Z,101920.00
2022-08-17T07:31:39.811Z,102368.00
2022-08-17T07:32:38.798Z,102144.00
2022-08-17T07:33:38.823Z,100448.00
2022-08-17T07:34:38.788Z,100992.00
2022-08-17T07:35:41.451Z,102592.00
2022-08-17T07:36:39.777Z,101728.00
2022-08-17T07:37:38.769Z,102816.00
2022-08-17T07:38:38.796Z,98272.00
2022-08-17T07:39:59.619Z,96512.00
2022-08-17T07:40:39.826Z,97472.00
2022-08-17T07:41:57.120Z,99872.00
2022-08-17T07:42:44.522Z,97376.00
2022-08-17T07:43:40.773Z,98528.00
2022-08-17T07:44:38.738Z,97216.00
2022-08-17T07:45:38.747Z,94784.00
2022-08-17T07:46:38.727Z,92480.00
2022-08-17T07:47:38.723Z,100576.00
2022-08-17T07:48:38.719Z,96896.00
2022-08-17T07:49:38.737Z,97504.00
2022-08-17T07:50:38.706Z,94400.00
2022-08-17T07:51:38.704Z,98240.00
2022-08-17T07:52:51.099Z,99232.00
2022-08-17T07:53:39.691Z,95936.00
2022-08-17T07:54:38.712Z,95328.00
2022-08-17T07:55:38.686Z,93120.00
2022-08-17T07:56:38.675Z,91296.00
2022-08-17T07:57:38.672Z,90784.00
2022-08-17T07:58:38.662Z,83712.00
2022-08-17T07:59:38.760Z,76960.00
2022-08-17T08:00:38.653Z,63968.00
2022-08-17T08:01:41.779Z,51744.00
2022-08-17T08:02:38.663Z,41888.00
2022-08-17T08:03:38.638Z,36256.00
2022-08-17T08:05:49.322Z,38848.00
2022-08-17T08:06:39.616Z,37184.00
2022-08-17T08:07:38.612Z,38560.00
2022-08-17T08:08:38.615Z,36160.00
2022-08-17T08:09:38.628Z,40032.00
2022-08-17T08:10:38.598Z,37504.00
2022-08-17T08:11:44.108Z,41408.00
2022-08-17T08:12:39.593Z,39680.00
2022-08-17T08:13:38.582Z,37376.00
2022-08-17T08:14:38.597Z,34304.00
2022-08-17T08:15:38.569Z,33248.00
2022-08-17T08:16:39.561Z,35040.00
2022-08-17T08:17:38.556Z,35264.00
2022-08-17T08:18:55.852Z,35648.00
2022-08-17T08:19:39.579Z,34912.00
2022-08-17T08:20:53.206Z,30976.00
2022-08-17T08:21:39.540Z,31328.00
2022-08-17T08:22:38.535Z,30784.00
2022-08-17T08:23:38.528Z,27136.00
2022-08-17T08:24:38.548Z,26848.00
2022-08-17T08:25:38.518Z,25952.00
2022-08-17T08:26:38.512Z,29920.00
2022-08-17T08:27:38.506Z,29824.00
2022-08-17T08:28:38.500Z,31712.00
2022-08-17T08:29:38.494Z,28448.00
2022-08-17T08:30:38.516Z,26432.00
2022-08-17T08:31:42.164Z,27488.00
2022-08-17T08:32:39.479Z,27296.00
2022-08-17T08:33:38.480Z,26432.00
2022-08-17T08:34:58.817Z,22944.00
2022-08-17T08:35:39.490Z,22848.00
2022-08-17T08:37:14.036Z,24192.00
2022-08-17T08:37:42.901Z,22976.00
2022-08-17T08:38:39.449Z,27584.00
2022-08-17T08:39:38.480Z,31200.00
2022-08-17T08:40:38.466Z,28672.00
2022-08-17T08:41:39.145Z,28704.00
2022-08-17T08:42:38.438Z,30144.00
2022-08-17T08:43:38.425Z,33376.00
2022-08-17T08:44:59.848Z,25664.00
2022-08-17T08:45:39.439Z,26016.00
2022-08-17T08:46:38.405Z,37088.00
2022-08-17T08:47:38.397Z,23616.00
2022-08-17T08:48:52.945Z,33280.00
2022-08-17T08:50:02.704Z,25440.00
2022-08-17T08:50:40.412Z,22304.00
2022-08-17T08:51:38.378Z,22944.00
2022-08-17T08:52:38.378Z,22496.00
2022-08-17T08:53:38.362Z,24416.00
2022-08-17T08:54:38.355Z,20608.00
2022-08-17T08:55:38.377Z,20992.00
2022-08-17T08:56:38.342Z,27648.00
2022-08-17T08:57:38.349Z,33760.00
2022-08-17T08:58:41.887Z,33088.00
2022-08-17T08:59:42.139Z,41408.00
2022-08-17T09:00:39.355Z,34912.00
2022-08-17T09:01:38.363Z,50112.00
2022-08-17T09:02:38.310Z,55232.00
2022-08-17T09:03:52.173Z,53760.00
2022-08-17T09:05:02.588Z,52768.00
2022-08-17T09:05:40.312Z,33536.00
2022-08-17T09:06:39.845Z,18880.00
2022-08-17T09:07:38.278Z,17856.00
2022-08-17T09:08:38.275Z,23072.00
2022-08-17T09:09:38.266Z,19200.00
2022-08-17T09:10:38.292Z,17376.00
2022-08-17T09:12:01.099Z,26080.00
2022-08-17T09:12:39.245Z,19712.00
2022-08-17T09:13:38.242Z,17376.00
2022-08-17T09:14:45.029Z,19584.00
2022-08-17T09:15:39.260Z,16500.00
2022-08-17T09:16:38.225Z,15344.00
2022-08-17T09:17:38.220Z,14272.00
2022-08-17T09:19:00.614Z,13652.00
2022-08-17T09:19:39.213Z,13276.00
2022-08-17T09:20:38.201Z,12968.00
2022-08-17T09:21:38.256Z,12732.00
2022-08-17T09:22:39.189Z,12668.00
2022-08-17T09:23:38.191Z,12888.00
2022-08-17T09:24:38.177Z,13784.00
2022-08-17T09:25:38.172Z,16640.00
2022-08-17T09:26:38.285Z,23616.00
2022-08-17T09:27:38.161Z,23040.00
2022-08-17T09:28:38.163Z,22592.00
2022-08-17T09:29:38.148Z,23904.00
2022-08-17T09:30:38.136Z,23264.00
2022-08-17T09:31:48.849Z,22976.00
2022-08-17T09:32:39.123Z,26112.00
2022-08-17T09:33:38.114Z,25088.00
2022-08-17T09:34:38.116Z,22240.00
2022-08-17T09:35:38.103Z,22944.00
2022-08-17T09:36:38.303Z,18848.00
2022-08-17T09:37:38.088Z,17024.00
2022-08-17T09:38:38.084Z,22080.00
2022-08-17T09:39:38.099Z,22592.00
2022-08-17T09:40:38.070Z,19104.00
2022-08-17T09:41:38.314Z,21792.00
2022-08-17T09:42:39.060Z,21184.00
2022-08-17T09:43:38.059Z,18752.00
2022-08-17T09:44:38.044Z,20224.00
2022-08-17T09:45:38.037Z,19712.00
2022-08-17T09:46:39.012Z,15428.00
2022-08-17T09:47:39.025Z,15476.00
2022-08-17T09:48:38.012Z,14140.00
2022-08-17T09:49:39.011Z,13900.00
2022-08-17T09:51:05.173Z,14084.00
2022-08-17T09:51:39.019Z,14016.00
2022-08-17T09:52:38.670Z,13732.00
2022-08-17T09:53:37.981Z,13272.00
2022-08-17T09:54:39.715Z,12880.00
2022-08-17T09:55:38.969Z,12808.00
2022-08-17T09:56:42.338Z,13120.00
2022-08-17T09:57:38.953Z,13648.00
2022-08-17T09:58:37.951Z,14416.00
2022-08-17T09:59:38.732Z,15188.00
2022-08-17T10:00:37.936Z,15812.00
2022-08-17T10:01:37.990Z,16320.00
2022-08-17T10:02:37.925Z,16704.00
2022-08-17T10:03:37.915Z,17536.00
2022-08-17T10:04:37.904Z,17696.00
2022-08-17T10:05:37.898Z,17792.00
2022-08-17T10:06:37.921Z,17536.00
2022-08-17T10:07:37.888Z,17440.00
2022-08-17T10:08:37.880Z,17632.00
2022-08-17T10:09:37.872Z,17664.00
2022-08-17T10:10:37.866Z,17376.00
2022-08-17T10:11:37.888Z,16960.00
2022-08-17T10:12:38.854Z,16704.00
2022-08-17T10:13:38.847Z,16640.00
2022-08-17T10:14:44.152Z,16480.00
2022-08-17T10:15:42.456Z,15884.00
2022-08-17T10:16:37.855Z,15656.00
2022-08-17T10:17:37.821Z,15352.00
2022-08-17T10:18:37.836Z,15064.00
2022-08-17T10:19:37.808Z,14944.00
2022-08-17T10:20:37.802Z,14632.00
2022-08-17T10:21:37.814Z,14796.00
2022-08-17T10:22:38.268Z,14800.00
2022-08-17T10:23:37.783Z,14572.00
2022-08-17T10:24:37.776Z,14360.00
2022-08-17T10:25:53.958Z,13816.00
2022-08-17T10:26:46.240Z,13396.00
2022-08-17T10:27:38.746Z,13128.00
2022-08-17T10:28:37.742Z,12940.00
2022-08-17T10:29:48.862Z,12992.00
2022-08-17T10:30:38.729Z,13132.00
2022-08-17T10:31:37.757Z,13216.00
2022-08-17T10:32:37.712Z,13192.00
2022-08-17T10:33:37.717Z,13176.00
2022-08-17T10:34:38.877Z,13136.00
2022-08-17T10:35:37.690Z,12928.00
2022-08-17T10:36:37.711Z,12608.00
2022-08-17T10:37:37.678Z,12356.00
2022-08-17T10:38:37.673Z,12216.00
2022-08-17T10:39:52.344Z,12152.00
2022-08-17T10:40:38.652Z,12072.00
2022-08-17T10:41:40.409Z,12036.00
2022-08-17T10:42:38.656Z,12112.00
2022-08-17T10:43:37.634Z,12368.00
2022-08-17T10:44:41.047Z,12772.00
2022-08-17T10:45:37.620Z,13176.00
2022-08-17T10:46:37.715Z,13396.00
2022-08-17T10:47:54.697Z,13192.00
2022-08-17T10:48:39.600Z,12824.00
2022-08-17T10:49:37.594Z,12420.00
2022-08-17T10:50:37.588Z,12072.00
2022-08-17T10:51:37.606Z,11876.00
2022-08-17T10:52:37.572Z,11648.00
2022-08-17T10:53:37.568Z,11444.00
2022-08-17T10:54:37.555Z,11312.00
2022-08-17T10:55:37.552Z,11228.00
2022-08-17T10:56:37.571Z,11116.00
2022-08-17T10:57:37.544Z,10900.00
2022-08-17T10:58:37.532Z,10712.00
2022-08-17T10:59:37.528Z,10452.00
2022-08-17T11:00:37.559Z,10244.00
2022-08-17T11:01:37.538Z,10160.00
2022-08-17T11:02:37.502Z,10164.00
2022-08-17T11:03:37.496Z,10100.00
2022-08-17T11:04:37.491Z,10092.00
2022-08-17T11:05:41.503Z,10136.00
2022-08-17T11:06:39.594Z,10168.00
2022-08-17T11:07:37.466Z,10232.00
2022-08-17T11:08:37.460Z,10328.00
2022-08-17T11:09:37.452Z,10436.00
2022-08-17T11:10:37.441Z,10492.00
2022-08-17T11:11:37.437Z,10480.00
2022-08-17T11:12:37.497Z,10364.00
2022-08-17T11:13:37.425Z,10164.00
2022-08-17T11:14:37.417Z,9924.00
2022-08-17T11:15:37.399Z,9656.00
2022-08-17T11:16:38.429Z,9312.00
2022-08-17T11:17:37.405Z,8920.00
2022-08-17T11:18:37.409Z,8548.00
2022-08-17T11:19:37.383Z,8200.00
2022-08-17T11:20:37.377Z,7904.00
2022-08-17T11:21:37.385Z,7652.00
2022-08-17T11:22:37.403Z,7432.00
2022-08-17T11:23:37.358Z,7220.00
2022-08-17T11:24:37.365Z,6980.00
2022-08-17T11:25:37.351Z,6784.00
2022-08-17T11:26:37.337Z,6648.00
2022-08-17T11:27:37.360Z,6528.00
2022-08-17T11:28:37.324Z,6508.00
2022-08-17T11:29:37.334Z,6552.00
2022-08-17T11:30:37.335Z,6696.00
2022-08-17T11:31:39.156Z,6896.00
2022-08-17T11:32:37.326Z,7184.00
2022-08-17T11:33:38.226Z,7384.00
2022-08-17T11:34:37.271Z,7508.00
2022-08-17T11:35:37.264Z,7544.00
2022-08-17T11:36:37.265Z,7512.00
2022-08-17T11:37:37.292Z,7540.00
2022-08-17T11:38:37.244Z,7648.00
2022-08-17T11:39:37.328Z,7796.00
2022-08-17T11:40:37.230Z,8084.00
2022-08-17T11:41:37.250Z,8424.00
2022-08-17T11:42:37.241Z,8804.00
2022-08-17T11:43:42.293Z,9180.00
2022-08-17T11:44:39.199Z,9556.00
2022-08-17T11:45:37.193Z,9912.00
2022-08-17T11:46:37.185Z,10228.00
2022-08-17T11:47:37.204Z,10420.00
2022-08-17T11:48:37.176Z,10568.00
2022-08-17T11:49:37.178Z,10648.00
2022-08-17T11:50:37.158Z,10876.00
2022-08-17T11:51:37.154Z,11224.00
2022-08-17T11:52:37.163Z,11528.00
2022-08-17T11:53:37.161Z,11880.00
2022-08-17T11:54:37.129Z,12540.00
2022-08-17T11:55:40.675Z,13240.00
2022-08-17T11:56:39.107Z,13772.00
2022-08-17T11:57:37.130Z,14596.00
2022-08-17T11:58:37.096Z,13776.00
2022-08-17T11:59:37.095Z,13596.00
2022-08-17T12:00:37.080Z,14412.00
2022-08-17T12:01:37.075Z,13652.00
2022-08-17T12:02:37.097Z,13144.00
2022-08-17T12:03:37.058Z,13000.00
2022-08-17T12:04:37.141Z,13096.00
2022-08-17T12:05:37.042Z,12916.00
2022-08-17T12:06:38.038Z,12420.00
2022-08-17T12:07:37.056Z,11944.00
2022-08-17T12:08:37.023Z,11692.00
2022-08-17T12:09:37.015Z,11564.00
2022-08-17T12:10:37.012Z,11460.00
2022-08-17T12:11:55.339Z,11324.00
2022-08-17T12:12:38.018Z,11148.00
2022-08-17T12:13:39.542Z,11064.00
2022-08-17T12:15:05.967Z,11012.00
2022-08-17T12:15:38.969Z,10888.00